Time;durP1;ratioP1;P1;durP2;ratioP2;P2;SDS_P1;SDS_P2;PMS_P1;PMS_P2;Temp;Humidity;BMP_temperature;BMP_pressure;BME280_temperature;BME280_humidity;BME280_pressure;Samples;Min_cycle;Max_cycle;Signal;HPM_P1;HPM_P2
2021/08/23 00:01:09;;;;;;;8.23;3.80;;;;;;;;;;5015492;28;20097;-43
2021/08/23 00:03:35;;;;;;;6.28;3.60;;;;;;;;;;5015563;28;20029;-44
2021/08/23 00:06:01;;;;;;;6.72;4.28;;;;;;;;;;5015445;28;20105;-43
2021/08/23 00:08:29;;;;;;;5.10;3.60;;;;;;;;;;5015323;28;20033;-43
2021/08/23 00:10:55;;;;;;;6.30;3.58;;;;;;;;;;5015301;28;20054;-43
2021/08/23 00:13:21;;;;;;;8.95;3.90;;;;;;;;;;5015510;28;20390;-44
2021/08/23 00:15:52;;;;;;;6.07;3.50;;;;;;;;;;5015298;28;20022;-43
2021/08/23 00:18:19;;;;;;;7.97;3.90;;;;;;;;;;5015363;28;20034;-44
2021/08/23 00:20:51;;;;;;;7.93;3.60;;;;;;;;;;5015278;28;20163;-42
2021/08/23 00:23:20;;;;;;;8.45;4.00;;;;;;;;;;5015091;28;20104;-44
2021/08/23 00:25:46;;;;;;;6.18;3.70;;;;;;;;;;5015287;28;20034;-43
2021/08/23 00:28:12;;;;;;;6.35;3.78;;;;;;;;;;5015092;28;20026;-43
2021/08/23 00:30:39;;;;;;;6.65;3.88;;;;;;;;;;5015117;28;20080;-44
2021/08/23 00:33:05;;;;;;;8.27;3.75;;;;;;;;;;5014977;28;20382;-43
2021/08/23 00:35:31;;;;;;;5.68;3.45;;;;;;;;;;5014804;28;20044;-44
2021/08/23 00:37:58;;;;;;;8.55;3.65;;;;;;;;;;5014838;28;20033;-44
2021/08/23 00:40:25;;;;;;;6.32;3.38;;;;;;;;;;5014520;28;20026;-42
2021/08/23 00:42:51;;;;;;;5.95;3.38;;;;;;;;;;5014786;28;20087;-41
2021/08/23 00:45:18;;;;;;;6.85;4.20;;;;;;;;;;5014824;28;20076;-41
2021/08/23 00:47:49;;;;;;;5.55;3.50;;;;;;;;;;5014678;28;20038;-43
2021/08/23 00:50:15;;;;;;;10.18;3.47;;;;;;;;;;5014583;28;20509;-43
2021/08/23 00:52:42;;;;;;;4.82;3.22;;;;;;;;;;5014648;28;20469;-42
2021/08/23 00:55:08;;;;;;;9.07;6.80;;;;;;;;;;5014438;28;20478;-43
2021/08/23 00:57:35;;;;;;;7.43;3.65;;;;;;;;;;5014641;28;20049;-43
2021/08/23 01:00:01;;;;;;;6.57;3.78;;;;;;;;;;5013611;28;20033;-41
2021/08/23 01:02:30;;;;;;;8.38;4.20;;;;;;;;;;5014484;28;20026;-42
2021/08/23 01:05:02;;;;;;;8.00;3.50;;;;;;;;;;5014457;28;20037;-41
2021/08/23 01:07:33;;;;;;;10.25;4.03;;;;;;;;;;5014241;28;20030;-43
2021/08/23 01:10:02;;;;;;;8.13;4.05;;;;;;;;;;5014036;28;20048;-44
2021/08/23 01:12:28;;;;;;;7.90;4.22;;;;;;;;;;5014354;28;20037;-42
2021/08/23 01:14:54;;;;;;;5.40;3.75;;;;;;;;;;5014209;28;20176;-40
2021/08/23 01:17:20;;;;;;;7.72;3.70;;;;;;;;;;5014215;28;20029;-41
2021/08/23 01:19:49;;;;;;;5.18;3.45;;;;;;;;;;5014155;28;20056;-42
2021/08/23 01:22:15;;;;;;;5.22;3.30;;;;;;;;;;5014052;28;20026;-42
2021/08/23 01:24:45;;;;;;;4.88;3.30;;;;;;;;;;5014071;28;20113;-41
2021/08/23 01:27:11;;;;;;;6.95;3.80;;;;;;;;;;5014074;28;20057;-42
2021/08/23 01:29:58;;;;;;;6.57;4.10;;;;;;;;;;5013949;28;20482;-41
2021/08/23 01:32:26;;;;;;;6.43;3.70;;;;;;;;;;5013994;28;20033;-41
2021/08/23 01:34:53;;;;;;;7.75;4.60;;;;;;;;;;5013967;28;20437;-41
2021/08/23 01:37:23;;;;;;;9.55;4.03;;;;;;;;;;5014149;28;20048;-42
2021/08/23 01:39:52;;;;;;;10.75;4.57;;;;;;;;;;5013690;28;20037;-41
2021/08/23 01:42:18;;;;;;;5.18;3.72;;;;;;;;;;5013829;28;20057;-43
2021/08/23 01:44:47;;;;;;;7.28;3.70;;;;;;;;;;5013745;28;20030;-42
2021/08/23 01:47:13;;;;;;;9.13;4.10;;;;;;;;;;5013854;28;20053;-42
2021/08/23 01:49:39;;;;;;;7.53;4.05;;;;;;;;;;5013829;28;20064;-41
2021/08/23 01:52:09;;;;;;;9.80;4.22;;;;;;;;;;5013901;28;20096;-41
2021/08/23 01:54:35;;;;;;;10.48;4.03;;;;;;;;;;5013671;28;20030;-41
2021/08/23 01:57:03;;;;;;;10.98;4.20;;;;;;;;;;5013590;28;20466;-41
2021/08/23 01:59:29;;;;;;;6.57;3.53;;;;;;;;;;5013625;28;20030;-41
2021/08/23 02:01:57;;;;;;;6.53;3.30;;;;;;;;;;5013608;28;20058;-41
2021/08/23 02:04:26;;;;;;;6.97;3.72;;;;;;;;;;5013589;28;20026;-40
2021/08/23 02:06:52;;;;;;;7.38;3.50;;;;;;;;;;5013582;28;20021;-43
2021/08/23 02:09:18;;;;;;;8.93;3.30;;;;;;;;;;5013239;28;20133;-47
2021/08/23 02:11:44;;;;;;;5.35;3.72;;;;;;;;;;5016428;28;20556;-41
2021/08/23 02:14:12;;;;;;;6.28;3.45;;;;;;;;;;5017725;28;20045;-41
2021/08/23 02:16:40;;;;;;;5.22;3.42;;;;;;;;;;5017712;28;20041;-41
2021/08/23 02:19:11;;;;;;;4.85;3.10;;;;;;;;;;5017509;28;20029;-41
2021/08/23 02:21:54;;;;;;;5.25;2.90;;;;;;;;;;5017487;28;20509;-41
2021/08/23 02:24:21;;;;;;;3.88;3.10;;;;;;;;;;5017489;28;20056;-41
2021/08/23 02:26:47;;;;;;;5.90;3.25;;;;;;;;;;5017298;28;20026;-40
2021/08/23 02:29:13;;;;;;;8.00;3.10;;;;;;;;;;5017220;28;20036;-40
2021/08/23 02:31:40;;;;;;;4.55;3.03;;;;;;;;;;5017172;28;20026;-40
2021/08/23 02:34:06;;;;;;;8.63;3.28;;;;;;;;;;5017246;28;20062;-41
2021/08/23 02:36:32;;;;;;;5.97;3.30;;;;;;;;;;5017137;28;20029;-41
2021/08/23 02:38:58;;;;;;;4.65;3.75;;;;;;;;;;5017053;28;20065;-41
2021/08/23 02:41:25;;;;;;;4.95;3.08;;;;;;;;;;5016983;28;20030;-40
2021/08/23 02:43:51;;;;;;;5.00;2.90;;;;;;;;;;5017042;28;20102;-41
2021/08/23 02:46:20;;;;;;;7.30;3.22;;;;;;;;;;5015606;28;20045;-41
2021/08/23 02:48:48;;;;;;;7.65;2.95;;;;;;;;;;5016763;28;20026;-41
2021/08/23 02:51:14;;;;;;;6.32;3.38;;;;;;;;;;5016880;28;20072;-40
2021/08/23 02:53:40;;;;;;;6.93;3.40;;;;;;;;;;5017077;28;20068;-41
2021/08/23 02:56:06;;;;;;;5.32;2.88;;;;;;;;;;5016805;28;20091;-42
2021/08/23 02:58:33;;;;;;;8.63;3.47;;;;;;;;;;5016893;28;20026;-42
2021/08/23 03:00:59;;;;;;;4.18;2.95;;;;;;;;;;5016665;28;20565;-41
2021/08/23 03:03:25;;;;;;;6.75;3.28;;;;;;;;;;5017057;28;20030;-41
2021/08/23 03:05:51;;;;;;;6.15;3.30;;;;;;;;;;5016836;28;20040;-41
2021/08/23 03:08:17;;;;;;;4.35;3.50;;;;;;;;;;5016673;28;20025;-41
2021/08/23 03:10:43;;;;;;;4.38;3.10;;;;;;;;;;5016712;28;20069;-41
2021/08/23 03:13:10;;;;;;;4.82;3.22;;;;;;;;;;5016539;28;20386;-44
2021/08/23 03:15:36;;;;;;;5.28;3.20;;;;;;;;;;5016498;28;20037;-42
2021/08/23 03:18:02;;;;;;;6.20;3.47;;;;;;;;;;5016614;28;20100;-42
2021/08/23 03:20:28;;;;;;;8.70;4.28;;;;;;;;;;5016619;28;20022;-41
2021/08/23 03:22:54;;;;;;;4.57;3.08;;;;;;;;;;5015799;28;20076;-41
2021/08/23 03:25:25;;;;;;;6.40;3.17;;;;;;;;;;5016307;28;20201;-41
2021/08/23 03:27:51;;;;;;;7.50;3.58;;;;;;;;;;5016280;28;20514;-40
2021/08/23 03:30:17;;;;;;;7.05;3.33;;;;;;;;;;5016189;28;20157;-42
2021/08/23 03:32:43;;;;;;;6.50;3.30;;;;;;;;;;5016251;28;20022;-42
2021/08/23 03:35:09;;;;;;;4.75;2.95;;;;;;;;;;5016099;28;20030;-41
2021/08/23 03:37:36;;;;;;;6.75;3.58;;;;;;;;;;5016085;28;20026;-41
2021/08/23 03:40:02;;;;;;;4.07;3.33;;;;;;;;;;5014877;28;20026;-41
2021/08/23 03:42:28;;;;;;;5.82;3.60;;;;;;;;;;5016021;28;20434;-42
2021/08/23 03:44:56;;;;;;;9.02;3.80;;;;;;;;;;5016035;28;20533;-42
2021/08/23 03:47:24;;;;;;;4.72;3.10;;;;;;;;;;5015906;28;20025;-41
2021/08/23 03:49:52;;;;;;;8.15;3.60;;;;;;;;;;5015756;28;20517;-41
2021/08/23 03:52:20;;;;;;;8.98;3.90;;;;;;;;;;5016109;28;20030;-41
2021/08/23 03:54:46;;;;;;;7.20;3.88;;;;;;;;;;5015971;28;20022;-41
2021/08/23 03:57:12;;;;;;;5.95;3.63;;;;;;;;;;5015696;28;20103;-41
2021/08/23 03:59:38;;;;;;;5.97;3.83;;;;;;;;;;5015943;28;20022;-41
2021/08/23 04:02:04;;;;;;;9.98;3.33;;;;;;;;;;5015614;28;20025;-41
2021/08/23 04:04:30;;;;;;;6.57;3.88;;;;;;;;;;5015728;28;20426;-41
2021/08/23 04:06:56;;;;;;;7.60;4.60;;;;;;;;;;5015650;28;20022;-41
2021/08/23 04:09:23;;;;;;;6.95;3.70;;;;;;;;;;5015157;28;20042;-41
2021/08/23 04:11:49;;;;;;;9.02;4.07;;;;;;;;;;5015605;28;20535;-41
2021/08/23 04:14:15;;;;;;;9.10;4.43;;;;;;;;;;5015460;28;20080;-41
2021/08/23 04:16:41;;;;;;;8.75;3.60;;;;;;;;;;5015300;28;20374;-41
2021/08/23 04:19:07;;;;;;;8.18;3.65;;;;;;;;;;5015558;28;20026;-42
2021/08/23 04:21:33;;;;;;;5.90;4.10;;;;;;;;;;5015342;28;20025;-41
2021/08/23 04:24:01;;;;;;;10.68;4.32;;;;;;;;;;5015305;28;20022;-41
2021/08/23 04:26:27;;;;;;;10.52;3.90;;;;;;;;;;5015021;28;20034;-41
2021/08/23 04:28:53;;;;;;;8.82;4.05;;;;;;;;;;5015005;28;20022;-41
2021/08/23 04:31:19;;;;;;;9.10;4.40;;;;;;;;;;5015016;28;20552;-41
2021/08/23 04:33:47;;;;;;;10.98;3.95;;;;;;;;;;5015154;28;20053;-41
2021/08/23 04:36:13;;;;;;;12.00;4.20;;;;;;;;;;5014997;28;20022;-42
2021/08/23 04:38:39;;;;;;;11.88;4.53;;;;;;;;;;5014972;28;20026;-41
2021/08/23 04:41:06;;;;;;;9.38;4.88;;;;;;;;;;5014981;28;20026;-42
2021/08/23 04:43:32;;;;;;;9.55;4.80;;;;;;;;;;5014660;28;20037;-41
2021/08/23 04:45:58;;;;;;;9.02;5.07;;;;;;;;;;5014768;28;20030;-41
2021/08/23 04:48:26;;;;;;;6.53;4.43;;;;;;;;;;5014778;28;20084;-41
2021/08/23 04:50:52;;;;;;;10.93;4.95;;;;;;;;;;5014722;28;20037;-41
2021/08/23 04:53:19;;;;;;;6.10;4.18;;;;;;;;;;5014573;28;20022;-41
2021/08/23 04:55:45;;;;;;;8.80;4.55;;;;;;;;;;5014867;28;20506;-42
2021/08/23 04:58:11;;;;;;;9.35;4.35;;;;;;;;;;5014546;28;20026;-42
2021/08/23 05:00:37;;;;;;;7.68;3.92;;;;;;;;;;5013219;28;20030;-41
2021/08/23 05:03:03;;;;;;;7.03;3.90;;;;;;;;;;5014595;28;20053;-42
2021/08/23 05:05:29;;;;;;;4.50;3.60;;;;;;;;;;5014716;28;20030;-42
2021/08/23 05:07:55;;;;;;;4.57;3.47;;;;;;;;;;5014646;28;20076;-42
2021/08/23 05:10:21;;;;;;;7.72;3.75;;;;;;;;;;5014126;28;20115;-42
2021/08/23 05:12:49;;;;;;;10.15;3.85;;;;;;;;;;5014321;28;20156;-42
2021/08/23 05:15:16;;;;;;;6.78;3.50;;;;;;;;;;5014307;28;20022;-42
2021/08/23 05:17:42;;;;;;;10.75;4.10;;;;;;;;;;5014206;28;20029;-42
2021/08/23 05:20:08;;;;;;;9.57;3.55;;;;;;;;;;5014283;28;20030;-42
2021/08/23 05:22:37;;;;;;;4.82;3.70;;;;;;;;;;5014183;28;20458;-42
2021/08/23 05:25:03;;;;;;;5.60;3.67;;;;;;;;;;5014283;28;20390;-42
2021/08/23 05:27:32;;;;;;;6.95;3.47;;;;;;;;;;5014140;28;20101;-41
2021/08/23 05:30:02;;;;;;;7.28;3.13;;;;;;;;;;5014077;28;20033;-42
2021/08/23 05:32:31;;;;;;;5.70;3.60;;;;;;;;;;5014221;28;20026;-42
2021/08/23 05:34:57;;;;;;;4.57;2.80;;;;;;;;;;5014143;28;20541;-41
2021/08/23 05:37:23;;;;;;;5.72;3.47;;;;;;;;;;5014006;28;20462;-41
2021/08/23 05:39:49;;;;;;;10.02;3.90;;;;;;;;;;5013763;28;20026;-41
2021/08/23 05:42:16;;;;;;;6.07;3.78;;;;;;;;;;5013987;28;20085;-41
2021/08/23 05:44:42;;;;;;;7.90;3.50;;;;;;;;;;5013573;28;20026;-42
2021/08/23 05:47:10;;;;;;;4.25;3.22;;;;;;;;;;5013508;28;20022;-42
2021/08/23 05:49:36;;;;;;;7.30;3.35;;;;;;;;;;5013763;28;20022;-41
2021/08/23 05:52:02;;;;;;;7.72;3.72;;;;;;;;;;5013902;28;20092;-41
2021/08/23 05:54:28;;;;;;;12.85;4.05;;;;;;;;;;5013877;28;20026;-42
2021/08/23 05:56:56;;;;;;;9.50;3.40;;;;;;;;;;5013602;28;20026;-42
2021/08/23 05:59:23;;;;;;;7.88;3.90;;;;;;;;;;5013584;28;20030;-42
2021/08/23 06:01:53;;;;;;;12.05;3.70;;;;;;;;;;5013625;28;20026;-42
2021/08/23 06:04:20;;;;;;;11.57;3.83;;;;;;;;;;5013733;28;20022;-39
2021/08/23 06:06:46;;;;;;;13.85;4.15;;;;;;;;;;5013469;28;20029;-40
2021/08/23 06:09:12;;;;;;;8.45;3.42;;;;;;;;;;5013248;28;20041;-40
2021/08/23 06:11:38;;;;;;;7.65;3.50;;;;;;;;;;5013542;28;20030;-40
2021/08/23 06:14:04;;;;;;;9.70;4.05;;;;;;;;;;5013332;28;20029;-40
2021/08/23 06:16:30;;;;;;;9.23;3.28;;;;;;;;;;5013452;28;20482;-41
2021/08/23 06:18:56;;;;;;;6.95;3.38;;;;;;;;;;5013663;28;20034;-41
2021/08/23 06:21:22;;;;;;;7.18;2.92;;;;;;;;;;5013392;28;20028;-45
2021/08/23 06:23:48;;;;;;;9.23;3.72;;;;;;;;;;5013370;28;20026;-47
2021/08/23 06:26:14;;;;;;;11.70;4.57;;;;;;;;;;5013560;28;20505;-42
2021/08/23 06:28:40;;;;;;;10.27;3.47;;;;;;;;;;5013346;28;20022;-46
2021/08/23 06:31:06;;;;;;;8.30;4.00;;;;;;;;;;5013233;28;20041;-46
2021/08/23 06:33:32;;;;;;;11.45;4.18;;;;;;;;;;5013359;28;20069;-48
2021/08/23 06:35:58;;;;;;;7.13;4.13;;;;;;;;;;5012000;28;20486;-46
2021/08/23 06:38:25;;;;;;;8.35;3.85;;;;;;;;;;5013198;28;20076;-42
2021/08/23 06:40:51;;;;;;;13.05;4.10;;;;;;;;;;5013331;28;20034;-42
2021/08/23 06:43:17;;;;;;;10.15;3.97;;;;;;;;;;5013260;28;20083;-43
2021/08/23 06:45:43;;;;;;;11.48;4.05;;;;;;;;;;5013104;28;20482;-43
2021/08/23 06:48:09;;;;;;;7.00;3.67;;;;;;;;;;5013409;28;20033;-43
2021/08/23 06:50:35;;;;;;;8.90;3.80;;;;;;;;;;5013249;28;20151;-41
2021/08/23 06:53:03;;;;;;;11.07;4.15;;;;;;;;;;5013363;28;20032;-44
2021/08/23 06:55:29;;;;;;;9.30;3.47;;;;;;;;;;5013358;28;20113;-42
2021/08/23 06:57:55;;;;;;;10.98;3.47;;;;;;;;;;5014556;28;20474;-42
2021/08/23 07:00:21;;;;;;;10.40;3.90;;;;;;;;;;5016610;28;20478;-46
2021/08/23 07:02:47;;;;;;;6.45;3.78;;;;;;;;;;5016977;28;20065;-43
2021/08/23 07:05:16;;;;;;;8.52;3.80;;;;;;;;;;5016676;28;20506;-44
2021/08/23 07:07:42;;;;;;;10.88;3.20;;;;;;;;;;5016871;28;20105;-43
2021/08/23 07:10:12;;;;;;;6.60;3.17;;;;;;;;;;5016264;28;20124;-43
2021/08/23 07:12:39;;;;;;;6.53;3.42;;;;;;;;;;5016914;28;20030;-46
2021/08/23 07:15:05;;;;;;;11.10;3.58;;;;;;;;;;5016464;28;20116;-41
2021/08/23 07:17:32;;;;;;;9.30;3.50;;;;;;;;;;5016696;28;20410;-42
2021/08/23 07:20:01;;;;;;;9.40;3.45;;;;;;;;;;5016579;28;20026;-42
2021/08/23 07:22:27;;;;;;;11.73;3.50;;;;;;;;;;5016416;28;20155;-48
2021/08/23 07:24:53;;;;;;;10.57;3.38;;;;;;;;;;5016307;28;20022;-43
2021/08/23 07:27:19;;;;;;;8.45;3.30;;;;;;;;;;5016414;28;20029;-43
2021/08/23 07:29:45;;;;;;;7.80;3.20;;;;;;;;;;5016121;28;20038;-43
2021/08/23 07:32:11;;;;;;;6.03;3.15;;;;;;;;;;5016397;28;20033;-42
2021/08/23 07:34:38;;;;;;;7.88;3.50;;;;;;;;;;5016206;28;20084;-44
2021/08/23 07:37:04;;;;;;;10.80;4.28;;;;;;;;;;5016220;28;20026;-42
2021/08/23 07:39:30;;;;;;;13.20;5.78;;;;;;;;;;5015955;28;20369;-43
2021/08/23 07:41:56;;;;;;;8.30;3.95;;;;;;;;;;5016216;28;20053;-41
2021/08/23 07:44:22;;;;;;;8.00;3.97;;;;;;;;;;5015847;28;20101;-42
2021/08/23 07:46:49;;;;;;;7.90;3.97;;;;;;;;;;5015838;28;20026;-41
2021/08/23 07:49:15;;;;;;;19.00;6.20;;;;;;;;;;5015983;28;20057;-42
2021/08/23 07:51:41;;;;;;;11.15;5.25;;;;;;;;;;5015874;28;20021;-41
2021/08/23 07:54:07;;;;;;;10.35;5.50;;;;;;;;;;5015917;28;20414;-43
2021/08/23 07:56:33;;;;;;;10.55;7.07;;;;;;;;;;5015758;28;20029;-42
2021/08/23 07:58:59;;;;;;;41.25;29.55;;;;;;;;;;5015781;28;20149;-43
2021/08/23 08:01:26;;;;;;;26.30;19.65;;;;;;;;;;5015788;28;20109;-42
2021/08/23 08:03:52;;;;;;;9.20;5.28;;;;;;;;;;5006854;28;20148;-42
2021/08/23 08:06:19;;;;;;;6.38;4.10;;;;;;;;;;4995542;28;20018;-44
2021/08/23 08:08:45;;;;;;;11.60;7.22;;;;;;;;;;4995090;28;20033;-44
2021/08/23 08:11:12;;;;;;;20.27;15.43;;;;;;;;;;4995410;28;20050;-44
2021/08/23 08:13:38;;;;;;;16.58;9.35;;;;;;;;;;4995246;28;20018;-41
2021/08/23 08:16:04;;;;;;;10.18;5.65;;;;;;;;;;4995427;28;20026;-41
2021/08/23 08:18:30;;;;;;;15.05;7.80;;;;;;;;;;4995442;28;20045;-40
2021/08/23 08:20:56;;;;;;;6.80;4.93;;;;;;;;;;4995408;28;20015;-41
2021/08/23 08:23:22;;;;;;;40.92;29.35;;;;;;;;;;4993825;28;20454;-41
2021/08/23 08:25:49;;;;;;;7.38;4.03;;;;;;;;;;4995155;28;20110;-41
2021/08/23 08:28:15;;;;;;;12.75;4.72;;;;;;;;;;4994952;28;20044;-41
2021/08/23 08:30:41;;;;;;;7.22;3.58;;;;;;;;;;4994855;28;20471;-41
2021/08/23 08:33:09;;;;;;;7.97;3.33;;;;;;;;;;4995126;28;20027;-41
2021/08/23 08:35:35;;;;;;;12.25;7.88;;;;;;;;;;4994875;28;20014;-41
2021/08/23 08:38:01;;;;;;;13.23;5.70;;;;;;;;;;4995049;28;20021;-40
2021/08/23 08:40:28;;;;;;;37.17;25.23;;;;;;;;;;4994740;28;20058;-41
2021/08/23 08:42:54;;;;;;;10.95;7.47;;;;;;;;;;4994732;28;20084;-41
2021/08/23 08:45:26;;;;;;;19.50;14.95;;;;;;;;;;4994719;28;20023;-41
2021/08/23 08:47:54;;;;;;;27.13;17.38;;;;;;;;;;4994683;28;20023;-41
2021/08/23 08:50:20;;;;;;;16.27;4.95;;;;;;;;;;4994644;28;20026;-41
2021/08/23 08:52:47;;;;;;;39.40;26.85;;;;;;;;;;4994642;28;20018;-41
2021/08/23 08:55:13;;;;;;;50.85;33.88;;;;;;;;;;4994731;28;20022;-41
2021/08/23 08:57:40;;;;;;;12.73;7.78;;;;;;;;;;4994376;28;20020;-41
2021/08/23 09:00:06;;;;;;;8.50;4.47;;;;;;;;;;4994388;28;20044;-41
2021/08/23 09:02:33;;;;;;;10.38;3.78;;;;;;;;;;4991913;28;20113;-41
2021/08/23 09:04:59;;;;;;;7.80;3.40;;;;;;;;;;4994475;28;20015;-42
2021/08/23 09:07:35;;;;;;;5.97;3.20;;;;;;;;;;4994495;28;20026;-41
2021/08/23 09:10:01;;;;;;;4.85;2.83;;;;;;;;;;4992544;28;20151;-42
2021/08/23 09:12:27;;;;;;;7.45;3.97;;;;;;;;;;4994323;28;20188;-41
2021/08/23 09:14:54;;;;;;;8.93;4.97;;;;;;;;;;4994168;28;20015;-42
2021/08/23 09:17:27;;;;;;;4.90;3.70;;;;;;;;;;4994240;28;20040;-41
2021/08/23 09:19:57;;;;;;;6.32;3.63;;;;;;;;;;4991218;28;20386;-41
2021/08/23 09:22:24;;;;;;;7.03;2.90;;;;;;;;;;4993987;28;20022;-39
2021/08/23 09:24:51;;;;;;;9.95;3.10;;;;;;;;;;4993940;28;20084;-41
2021/08/23 09:27:17;;;;;;;11.20;5.63;;;;;;;;;;4993904;28;20467;-40
2021/08/23 09:29:56;;;;;;;9.90;5.75;;;;;;;;;;4993783;28;20038;-41
2021/08/23 09:32:24;;;;;;;6.32;3.00;;;;;;;;;;4992101;28;20037;-40
2021/08/23 09:34:50;;;;;;;10.10;3.53;;;;;;;;;;4992932;28;20065;-41
2021/08/23 09:37:18;;;;;;;7.60;4.03;;;;;;;;;;4994096;28;20022;-41
2021/08/23 09:39:44;;;;;;;5.00;2.97;;;;;;;;;;4993639;28;20561;-40
2021/08/23 09:42:13;;;;;;;9.50;6.15;;;;;;;;;;4993769;28;20084;-41
2021/08/23 09:44:39;;;;;;;6.32;5.03;;;;;;;;;;4993782;28;20023;-41
2021/08/23 09:47:06;;;;;;;14.43;6.32;;;;;;;;;;4993764;28;20049;-41
2021/08/23 09:49:39;;;;;;;7.28;3.53;;;;;;;;;;4993674;28;20034;-41
2021/08/23 09:52:06;;;;;;;6.72;3.28;;;;;;;;;;4990520;28;20035;-43
2021/08/23 09:54:32;;;;;;;4.07;3.25;;;;;;;;;;4993675;28;20078;-42
2021/08/23 09:56:59;;;;;;;6.88;3.35;;;;;;;;;;4993419;28;20018;-42
2021/08/23 09:59:35;;;;;;;6.85;3.20;;;;;;;;;;4993530;28;20079;-49
2021/08/23 10:02:01;;;;;;;6.55;3.53;;;;;;;;;;4990989;28;20022;-47
2021/08/23 10:04:27;;;;;;;6.78;3.45;;;;;;;;;;4993489;28;20045;-50
2021/08/23 10:06:54;;;;;;;9.02;3.42;;;;;;;;;;4993558;28;20026;-43
2021/08/23 10:09:22;;;;;;;7.70;3.95;;;;;;;;;;4993076;28;20046;-43
2021/08/23 10:11:48;;;;;;;14.50;6.88;;;;;;;;;;4993218;28;20026;-42
2021/08/23 10:14:15;;;;;;;11.68;7.70;;;;;;;;;;4993228;28;20025;-43
2021/08/23 10:16:41;;;;;;;25.90;18.60;;;;;;;;;;4993337;28;20022;-42
2021/08/23 10:19:12;;;;;;;12.48;4.88;;;;;;;;;;4993283;28;20049;-43
2021/08/23 10:21:40;;;;;;;5.53;3.35;;;;;;;;;;4993400;28;20457;-46
2021/08/23 10:24:07;;;;;;;9.45;3.58;;;;;;;;;;4993244;28;20026;-42
2021/08/23 10:26:43;;;;;;;10.80;4.45;;;;;;;;;;4993487;28;20026;-47
2021/08/23 10:29:10;;;;;;;6.28;3.88;;;;;;;;;;4993229;28;20026;-49
2021/08/23 10:31:38;;;;;;;23.52;14.02;;;;;;;;;;4991470;28;20031;-48
2021/08/23 10:34:17;;;;;;;5.45;3.65;;;;;;;;;;4997625;28;20015;-47
2021/08/23 10:36:44;;;;;;;5.90;3.05;;;;;;;;;;4995407;28;20029;-43
2021/08/23 10:39:17;;;;;;;31.63;18.95;;;;;;;;;;4997093;28;20471;-43
2021/08/23 10:41:43;;;;;;;12.32;8.43;;;;;;;;;;4997031;28;20023;-45
2021/08/23 10:44:09;;;;;;;18.65;12.88;;;;;;;;;;4996940;28;20022;-46
2021/08/23 10:46:37;;;;;;;41.45;25.38;;;;;;;;;;4996757;28;20029;-47
2021/08/23 10:49:15;;;;;;;40.17;26.63;;;;;;;;;;4996926;28;20030;-47
2021/08/23 10:51:44;;;;;;;13.48;8.55;;;;;;;;;;4997219;28;20035;-46
2021/08/23 10:54:21;;;;;;;37.63;24.38;;;;;;;;;;4997265;28;20023;-48
2021/08/23 10:56:49;;;;;;;36.83;26.88;;;;;;;;;;4997152;28;20046;-42
2021/08/23 10:59:17;;;;;;;124.15;99.00;;;;;;;;;;4997158;28;20014;-45
2021/08/23 11:01:53;;;;;;;69.82;50.00;;;;;;;;;;4997100;28;20023;-44
2021/08/23 11:04:29;;;;;;;85.40;69.35;;;;;;;;;;4997061;28;20435;-42
2021/08/23 11:06:55;;;;;;;27.48;18.13;;;;;;;;;;4997056;28;20093;-43
2021/08/23 11:09:30;;;;;;;8.80;6.85;;;;;;;;;;4996657;28;20133;-43
2021/08/23 11:12:05;;;;;;;15.52;12.75;;;;;;;;;;4997027;28;20046;-48
2021/08/23 11:14:41;;;;;;;8.35;5.05;;;;;;;;;;4996728;28;20033;-46
2021/08/23 11:17:07;;;;;;;22.05;12.77;;;;;;;;;;4996904;28;20034;-45
2021/08/23 11:19:37;;;;;;;10.13;4.65;;;;;;;;;;4996756;28;20029;-42
2021/08/23 11:22:05;;;;;;;35.60;23.80;;;;;;;;;;4996817;28;20514;-43
2021/08/23 11:24:32;;;;;;;35.92;27.40;;;;;;;;;;4996319;28;20399;-48
2021/08/23 11:27:03;;;;;;;11.00;5.47;;;;;;;;;;4996058;28;20037;-45
2021/08/23 11:29:29;;;;;;;18.20;12.50;;;;;;;;;;4995830;28;20486;-47
2021/08/23 11:32:01;;;;;;;26.95;21.73;;;;;;;;;;4996067;28;20040;-45
2021/08/23 11:34:28;;;;;;;35.15;25.60;;;;;;;;;;4996233;28;20022;-47
2021/08/23 11:36:59;;;;;;;40.67;27.55;;;;;;;;;;4995941;28;20021;-45
2021/08/23 11:39:28;;;;;;;16.35;10.52;;;;;;;;;;4995999;28;20014;-45
2021/08/23 11:42:02;;;;;;;9.07;4.00;;;;;;;;;;4996176;28;20073;-44
2021/08/23 11:44:28;;;;;;;5.30;2.65;;;;;;;;;;4995778;28;20450;-46
2021/08/23 11:46:55;;;;;;;7.63;3.22;;;;;;;;;;4996437;28;20033;-46
2021/08/23 11:49:28;;;;;;;29.55;5.90;;;;;;;;;;4996258;28;20030;-46
2021/08/23 11:51:54;;;;;;;12.32;3.80;;;;;;;;;;4996406;28;20080;-42
2021/08/23 11:54:20;;;;;;;10.60;6.32;;;;;;;;;;4996131;28;20033;-42
2021/08/23 11:56:46;;;;;;;56.60;43.38;;;;;;;;;;4996214;28;20030;-42
2021/08/23 11:59:13;;;;;;;8.73;5.18;;;;;;;;;;4996100;28;20387;-44
2021/08/23 12:01:39;;;;;;;25.50;18.15;;;;;;;;;;4996100;28;20026;-44
2021/08/23 12:04:05;;;;;;;9.73;6.22;;;;;;;;;;4995937;28;20023;-42
2021/08/23 12:06:35;;;;;;;14.52;9.10;;;;;;;;;;4996035;28;20030;-41
2021/08/23 12:09:02;;;;;;;8.80;6.30;;;;;;;;;;4995658;28;20510;-47
2021/08/23 12:11:28;;;;;;;11.20;4.60;;;;;;;;;;4995779;28;20054;-42
2021/08/23 12:13:54;;;;;;;6.47;3.40;;;;;;;;;;4995760;28;20027;-43
2021/08/23 12:16:21;;;;;;;33.75;23.38;;;;;;;;;;4995737;28;20077;-45
2021/08/23 12:18:48;;;;;;;23.20;16.60;;;;;;;;;;4995804;28;20111;-42
2021/08/23 12:21:14;;;;;;;18.73;11.82;;;;;;;;;;4995804;28;20121;-42
2021/08/23 12:23:49;;;;;;;9.55;5.38;;;;;;;;;;4995649;28;20081;-41
2021/08/23 12:26:16;;;;;;;8.15;3.33;;;;;;;;;;4995756;28;20034;-41
2021/08/23 12:28:49;;;;;;;6.95;2.85;;;;;;;;;;4995494;28;20076;-41
2021/08/23 12:31:15;;;;;;;7.20;3.90;;;;;;;;;;4995467;28;20093;-39
2021/08/23 12:33:41;;;;;;;7.38;3.08;;;;;;;;;;4995369;28;20023;-43
2021/08/23 12:36:08;;;;;;;4.57;2.83;;;;;;;;;;4995437;28;20114;-41
2021/08/23 12:38:36;;;;;;;7.72;4.32;;;;;;;;;;4995217;28;20419;-43
2021/08/23 12:41:04;;;;;;;11.93;7.60;;;;;;;;;;4994979;28;20514;-48
2021/08/23 12:43:30;;;;;;;52.33;28.17;;;;;;;;;;4995220;28;20026;-46
2021/08/23 12:45:57;;;;;;;34.63;19.73;;;;;;;;;;4995220;28;20080;-46
2021/08/23 12:48:23;;;;;;;8.13;4.68;;;;;;;;;;4995245;28;20073;-45
2021/08/23 12:50:49;;;;;;;37.08;20.00;;;;;;;;;;4995021;28;20039;-42
2021/08/23 12:53:15;;;;;;;167.20;44.65;;;;;;;;;;4995006;28;20046;-45
2021/08/23 12:55:43;;;;;;;64.05;20.98;;;;;;;;;;4994075;28;20019;-40
2021/08/23 12:58:09;;;;;;;87.30;31.85;;;;;;;;;;4995078;28;20019;-41
2021/08/23 13:00:35;;;;;;;26.70;10.75;;;;;;;;;;4994874;28;20025;-48
2021/08/23 13:03:01;;;;;;;30.15;7.40;;;;;;;;;;4994944;28;20387;-41
2021/08/23 13:05:28;;;;;;;14.10;5.80;;;;;;;;;;4994870;28;20022;-39
2021/08/23 13:07:54;;;;;;;6.28;3.67;;;;;;;;;;4994713;28;20022;-39
2021/08/23 13:10:20;;;;;;;13.20;5.80;;;;;;;;;;4994096;28;20057;-38
2021/08/23 13:12:46;;;;;;;16.10;9.38;;;;;;;;;;4994171;28;20034;-38
2021/08/23 13:15:12;;;;;;;47.05;32.53;;;;;;;;;;4994197;28;20022;-40
2021/08/23 13:17:38;;;;;;;51.55;34.90;;;;;;;;;;4991642;28;20076;-38
2021/08/23 13:20:05;;;;;;;88.93;65.00;;;;;;;;;;4993987;28;20033;-40
2021/08/23 13:22:31;;;;;;;29.13;19.77;;;;;;;;;;4994042;28;20027;-40
2021/08/23 13:24:57;;;;;;;15.65;5.35;;;;;;;;;;4994067;28;20022;-40
2021/08/23 13:27:23;;;;;;;23.70;5.40;;;;;;;;;;4993796;28;20037;-38
2021/08/23 13:29:50;;;;;;;22.20;13.38;;;;;;;;;;4993947;28;20027;-39
2021/08/23 13:32:16;;;;;;;24.25;13.95;;;;;;;;;;4991406;28;20065;-40
2021/08/23 13:34:42;;;;;;;60.60;37.50;;;;;;;;;;4993867;28;20108;-42
2021/08/23 13:37:08;;;;;;;37.75;20.02;;;;;;;;;;4993869;28;20023;-42
2021/08/23 13:39:34;;;;;;;43.22;20.77;;;;;;;;;;4993540;28;20030;-40
2021/08/23 13:42:00;;;;;;;25.15;15.60;;;;;;;;;;4993623;28;20022;-41
2021/08/23 13:44:26;;;;;;;32.25;18.88;;;;;;;;;;4993606;28;20113;-42
2021/08/23 13:46:53;;;;;;;21.80;10.25;;;;;;;;;;4993792;28;20022;-42
2021/08/23 13:49:20;;;;;;;17.90;6.18;;;;;;;;;;4993786;28;20034;-46
2021/08/23 13:51:47;;;;;;;27.77;12.27;;;;;;;;;;4994144;28;20038;-42
2021/08/23 13:54:13;;;;;;;20.60;12.38;;;;;;;;;;4994117;28;20471;-41
2021/08/23 13:56:39;;;;;;;29.73;16.00;;;;;;;;;;4994149;28;20034;-41
2021/08/23 13:59:05;;;;;;;25.73;8.93;;;;;;;;;;4994048;28;20467;-41
2021/08/23 14:01:31;;;;;;;35.03;6.47;;;;;;;;;;4993841;28;20038;-41
2021/08/23 14:03:57;;;;;;;48.83;8.15;;;;;;;;;;4994020;28;20113;-41
2021/08/23 14:06:23;;;;;;;35.70;6.00;;;;;;;;;;4993731;28;20041;-40
2021/08/23 14:08:49;;;;;;;72.38;11.88;;;;;;;;;;4993675;28;20058;-39
2021/08/23 14:11:15;;;;;;;203.60;142.93;;;;;;;;;;4993823;28;20177;-42
2021/08/23 14:13:42;;;;;;;69.20;23.65;;;;;;;;;;4993914;28;20014;-45
2021/08/23 14:16:08;;;;;;;74.38;45.90;;;;;;;;;;4992993;28;20022;-43
2021/08/23 14:18:36;;;;;;;46.65;13.93;;;;;;;;;;4994002;28;20022;-44
2021/08/23 14:21:02;;;;;;;31.27;6.78;;;;;;;;;;4993892;28;20050;-44
2021/08/23 14:23:29;;;;;;;42.85;12.30;;;;;;;;;;4993745;28;20026;-47
2021/08/23 14:25:55;;;;;;;209.90;158.88;;;;;;;;;;4993857;28;20113;-49
2021/08/23 14:28:21;;;;;;;415.50;341.10;;;;;;;;;;4993653;28;20027;-43
2021/08/23 14:30:49;;;;;;;31.67;13.48;;;;;;;;;;4993656;28;20129;-41
2021/08/23 14:33:15;;;;;;;15.38;3.88;;;;;;;;;;4992361;28;20518;-40
2021/08/23 14:35:42;;;;;;;9.93;2.95;;;;;;;;;;4993668;28;20026;-47